Terminal Aerodrome Forecast
Issued by NWS

Home | Current Version | Previous Version | Text Only | Print | Product List | Glossary On
Versions: 1 2 3 4 5 6 7 8 9 10 11 12 13
000
FTUS45 KABQ 281728
TAFLVS
TAF
KLVS 281728Z 2818/2918 07007KT P6SM SCT070 SCT250
     FM282000 06010KT P6SM VCTS BKN070CB
      TEMPO 2821/2823 -TSRA BKN060CB
     FM282300 02009KT P6SM SCT070 SCT250
     FM290700 05006KT P6SM FEW150=

USA.gov is the U.S. government's official web portal to all federal, state and local government web resources and services.